Ghardaia, Algeria
Current Conditions -  °F | °C
As of 11:00 PM on Monday 26 Jan 2015 (Local Time) from DAUG Reporting Station
Haze Haze  
Wind Chill: 39°   Ceiling: Unl
Heat Index: 45°   Visibility: 2.5mi
Dew Point: 25°   Wind: 12mph
Humidity: 46%   Direction: 320°NW
Pressure: 30.27"   Gusts: NA
Location:  32.49°N, 3.68°E
Report Text: DAUG 262200Z 32010KT 4000 HZ NSC 07/M04 Q1025
Loading
Personal Weather Stations






























Interactive Weather Map New forecast layout! Learn more

10-Day Weather Forecast

Advertisements
Track Severe Weather on mobile